메인 페이지
METAR-TAF:

METAR-TAF

공항 :

리가 국제공항

리가, 라트비아

위도: 56-55N, 경도: 023-58E, 고도: 10m

현재 날씨관측

예보는 37분 전, 12:20시(UTC)에 발표되었습니다.
북북서4kt풍과 북북동풍을 오가는
온도 24°C
습도 65%
기압 1011 hPa
시정 10km 이상
고도 3500ft 상공 구름 보통

METAR: EVRA 241220Z 33004KT 280V020 9999 SCT035 24/17 Q1011 NOSIG

시각: 15:57 (12:57 UTC)

예보

예보는 1 시간 56분 전, 11:01시(UTC)에 발표되었습니다.
예보 대상 시간: 24일 12시부터 25일 12시까지 (UTC)
여러 방향의 바람 2kt
시정 10km 이상
고도 3000ft 상공 구름 보통
일시적
24일 12시부터 24일 18시까지 (UTC)
고도 3000ft 상공 구름 보통, 적란운.
일시적
25일 00시부터 25일 03시까지 (UTC)
고도 500ft 상공 구름 많음
확률 40% :
일시적
25일 00시부터 25일 03시까지 (UTC)
시정: 0700m
고도 100ft 상공 구름 많음
안개
일시적
25일 06시부터 25일 12시까지 (UTC)
시정: 4000m
고도 800ft 상공 구름 많음
고도 2000ft 상공 구름 많음, 적란운.
약한소나기,

TAF: EVRA 241101Z 2412/2512 VRB02KT 9999 SCT030 TEMPO 2412/2418 SCT030CB TEMPO 2500/2503 BKN005 PROB40 TEMPO 2500/2503 0700 FG BKN001 TEMPO 2506/2512 4000 -SHRA BKN008 BKN020CB

4,000개 이상의 공항 관측 자료 및 예보 (METAR 및 TAF 보고).

지도상에서 검색 가능한 기상관측소가 노란 점과 빨간 점으로 표시되어 있습니다.

기상관측소 명을 보려면 표시 위로 마우스를 이동하세요.

날씨 관측과 예보를 보려면 클릭하세요.

지도 변경 : 확대하려면 엑스 표시가 있는 녹색 버튼, 축소하려면 빼기 표시가 있는 녹색 버튼, 다음 페이지의 지도를 보려면 녹색 화살표를 클릭하세요.


METAR-TAF: